sensor_id;sensor_type;location;lat;lon;timestamp;pressure;altitude;pressure_sealevel;temperature;humidity
72802;BME280;61891;55.818;37.084;2022-07-30T00:02:25;99829.25;;;15.44;59.70
72802;BME280;61891;55.818;37.084;2022-07-30T00:04:51;99849.50;;;15.54;60.22
72802;BME280;61891;55.818;37.084;2022-07-30T00:07:17;99843.06;;;15.48;60.30
72802;BME280;61891;55.818;37.084;2022-07-30T00:09:43;99839.94;;;15.44;60.45
72802;BME280;61891;55.818;37.084;2022-07-30T00:12:09;99848.78;;;15.45;60.08
72802;BME280;61891;55.818;37.084;2022-07-30T00:14:35;99821.72;;;15.33;60.05
72802;BME280;61891;55.818;37.084;2022-07-30T00:17:01;99832.03;;;15.36;60.25
72802;BME280;61891;55.818;37.084;2022-07-30T00:19:27;99844.09;;;15.32;60.44
72802;BME280;61891;55.818;37.084;2022-07-30T00:21:53;99842.81;;;15.28;60.46
72802;BME280;61891;55.818;37.084;2022-07-30T00:24:22;99851.38;;;15.24;60.84
72802;BME280;61891;55.818;37.084;2022-07-30T00:26:48;99852.94;;;15.18;60.18
72802;BME280;61891;55.818;37.084;2022-07-30T00:29:14;99853.31;;;15.15;61.04
72802;BME280;61891;55.818;37.084;2022-07-30T00:31:40;99847.69;;;15.10;60.93
72802;BME280;61891;55.818;37.084;2022-07-30T00:34:06;99851.38;;;15.09;60.92
72802;BME280;61891;55.818;37.084;2022-07-30T00:36:32;99851.38;;;15.09;61.03
72802;BME280;61891;55.818;37.084;2022-07-30T00:38:57;99862.41;;;15.06;61.18
72802;BME280;61891;55.818;37.084;2022-07-30T00:41:23;99847.22;;;14.92;60.88
72802;BME280;61891;55.818;37.084;2022-07-30T00:43:49;99858.09;;;14.90;61.40
72802;BME280;61891;55.818;37.084;2022-07-30T00:46:15;99835.41;;;14.71;60.94
72802;BME280;61891;55.818;37.084;2022-07-30T00:48:41;99853.84;;;14.81;61.15
72802;BME280;61891;55.818;37.084;2022-07-30T00:51:07;99857.88;;;14.77;61.76
72802;BME280;61891;55.818;37.084;2022-07-30T00:53:33;99855.75;;;14.72;61.38
72802;BME280;61891;55.818;37.084;2022-07-30T00:55:59;99857.78;;;14.70;62.01
72802;BME280;61891;55.818;37.084;2022-07-30T00:58:25;99841.56;;;14.57;61.59
72802;BME280;61891;55.818;37.084;2022-07-30T01:00:51;99850.13;;;14.67;61.78
72802;BME280;61891;55.818;37.084;2022-07-30T01:03:17;99855.47;;;14.67;61.43
72802;BME280;61891;55.818;37.084;2022-07-30T01:05:43;99858.13;;;14.67;61.71
72802;BME280;61891;55.818;37.084;2022-07-30T01:08:09;99848.00;;;14.63;61.77
72802;BME280;61891;55.818;37.084;2022-07-30T01:10:35;99844.22;;;14.57;61.52
72802;BME280;61891;55.818;37.084;2022-07-30T01:13:00;99849.28;;;14.52;61.93
72802;BME280;61891;55.818;37.084;2022-07-30T01:15:27;99839.97;;;14.48;61.96
72802;BME280;61891;55.818;37.084;2022-07-30T01:17:56;99818.09;;;14.30;61.90
72802;BME280;61891;55.818;37.084;2022-07-30T01:20:30;99830.06;;;14.34;62.03
72802;BME280;61891;55.818;37.084;2022-07-30T01:23:06;99829.06;;;14.35;62.07
72802;BME280;61891;55.818;37.084;2022-07-30T01:25:47;99839.16;;;14.47;62.05
72802;BME280;61891;55.818;37.084;2022-07-30T01:28:17;99843.47;;;14.48;62.25
72802;BME280;61891;55.818;37.084;2022-07-30T01:30:44;99843.47;;;14.48;61.68
72802;BME280;61891;55.818;37.084;2022-07-30T01:33:14;99844.47;;;14.47;61.95
72802;BME280;61891;55.818;37.084;2022-07-30T01:35:43;99837.66;;;14.45;61.79
72802;BME280;61891;55.818;37.084;2022-07-30T01:38:10;99808.63;;;14.27;61.96
72802;BME280;61891;55.818;37.084;2022-07-30T01:40:38;99840.16;;;14.46;61.92
72802;BME280;61891;55.818;37.084;2022-07-30T01:43:06;99839.38;;;14.38;61.88
72802;BME280;61891;55.818;37.084;2022-07-30T01:45:34;99830.34;;;14.39;61.91
72802;BME280;61891;55.818;37.084;2022-07-30T01:48:03;99788.91;;;14.13;61.71
72802;BME280;61891;55.818;37.084;2022-07-30T01:50:31;99844.19;;;14.42;61.72
72802;BME280;61891;55.818;37.084;2022-07-30T01:52:57;99830.06;;;14.34;61.76
72802;BME280;61891;55.818;37.084;2022-07-30T01:55:40;99841.38;;;14.36;61.68
72802;BME280;61891;55.818;37.084;2022-07-30T01:58:08;99840.19;;;14.38;61.95
72802;BME280;61891;55.818;37.084;2022-07-30T02:00:39;99848.00;;;14.40;61.88
72802;BME280;61891;55.818;37.084;2022-07-30T02:03:06;99848.69;;;14.42;61.78
72802;BME280;61891;55.818;37.084;2022-07-30T02:05:35;99835.03;;;14.37;62.19
72802;BME280;61891;55.818;37.084;2022-07-30T02:10:53;99844.66;;;14.46;61.49
72802;BME280;61891;55.818;37.084;2022-07-30T02:13:26;99846.69;;;14.44;61.77
72802;BME280;61891;55.818;37.084;2022-07-30T02:20:59;99852.66;;;14.46;61.94
72802;BME280;61891;55.818;37.084;2022-07-30T02:23:27;99768.34;;;13.99;61.80
72802;BME280;61891;55.818;37.084;2022-07-30T02:25:55;99837.47;;;14.46;61.78
72802;BME280;61891;55.818;37.084;2022-07-30T02:28:22;99837.16;;;14.41;61.99
72802;BME280;61891;55.818;37.084;2022-07-30T02:30:54;99837.13;;;14.49;62.03
72802;BME280;61891;55.818;37.084;2022-07-30T02:33:32;99821.16;;;14.41;62.19
72802;BME280;61891;55.818;37.084;2022-07-30T02:36:01;99842.28;;;14.51;62.31
72802;BME280;61891;55.818;37.084;2022-07-30T02:38:28;99843.88;;;14.60;62.14
72802;BME280;61891;55.818;37.084;2022-07-30T02:40:56;99753.66;;;14.03;61.85
72802;BME280;61891;55.818;37.084;2022-07-30T02:43:24;99850.31;;;14.66;61.62
72802;BME280;61891;55.818;37.084;2022-07-30T02:45:51;99842.84;;;14.61;61.78
72802;BME280;61891;55.818;37.084;2022-07-30T02:48:20;99827.56;;;14.55;61.93
72802;BME280;61891;55.818;37.084;2022-07-30T02:50:50;99852.63;;;14.69;62.08
72802;BME280;61891;55.818;37.084;2022-07-30T02:53:17;99858.06;;;14.75;61.86
72802;BME280;61891;55.818;37.084;2022-07-30T02:55:47;99867.72;;;14.76;61.69
72802;BME280;61891;55.818;37.084;2022-07-30T02:58:19;99867.72;;;14.76;61.69
72802;BME280;61891;55.818;37.084;2022-07-30T03:00:48;99867.72;;;14.76;61.67
72802;BME280;61891;55.818;37.084;2022-07-30T03:03:15;99871.03;;;14.78;61.57
72802;BME280;61891;55.818;37.084;2022-07-30T03:05:42;99867.38;;;14.79;61.95
72802;BME280;61891;55.818;37.084;2022-07-30T03:08:09;99844.16;;;14.65;61.82
72802;BME280;61891;55.818;37.084;2022-07-30T03:10:35;99873.44;;;14.88;62.22
72802;BME280;61891;55.818;37.084;2022-07-30T03:13:04;99865.91;;;14.92;62.33
72802;BME280;61891;55.818;37.084;2022-07-30T03:15:33;99872.34;;;14.97;61.87
72802;BME280;61891;55.818;37.084;2022-07-30T03:18:04;99866.47;;;15.02;62.08
72802;BME280;61891;55.818;37.084;2022-07-30T03:20:32;99837.63;;;14.82;62.06
72802;BME280;61891;55.818;37.084;2022-07-30T03:23:00;99878.06;;;15.09;61.93
72802;BME280;61891;55.818;37.084;2022-07-30T03:25:29;99878.00;;;15.17;61.92
72802;BME280;61891;55.818;37.084;2022-07-30T03:28:00;99842.25;;;15.03;61.88
72802;BME280;61891;55.818;37.084;2022-07-30T03:30:27;99868.69;;;15.28;61.75
72802;BME280;61891;55.818;37.084;2022-07-30T03:32:54;99869.03;;;15.39;62.02
72802;BME280;61891;55.818;37.084;2022-07-30T03:35:21;99879.81;;;15.46;61.93
72802;BME280;61891;55.818;37.084;2022-07-30T03:37:49;99853.47;;;15.43;61.27
72802;BME280;61891;55.818;37.084;2022-07-30T03:40:16;99863.34;;;15.57;61.38
72802;BME280;61891;55.818;37.084;2022-07-30T03:42:43;99871.47;;;15.64;61.09
72802;BME280;61891;55.818;37.084;2022-07-30T03:45:11;99856.28;;;15.64;60.96
72802;BME280;61891;55.818;37.084;2022-07-30T03:47:39;99874.31;;;15.77;60.54
72802;BME280;61891;55.818;37.084;2022-07-30T03:50:07;99870.88;;;15.83;60.68
72802;BME280;61891;55.818;37.084;2022-07-30T03:52:37;99854.38;;;15.79;60.90
72802;BME280;61891;55.818;37.084;2022-07-30T03:55:07;99864.16;;;15.87;60.19
72802;BME280;61891;55.818;37.084;2022-07-30T03:57:48;99869.75;;;15.92;60.38
72802;BME280;61891;55.818;37.084;2022-07-30T04:00:16;99882.06;;;16.08;59.78
72802;BME280;61891;55.818;37.084;2022-07-30T04:02:47;99854.22;;;16.02;60.10
72802;BME280;61891;55.818;37.084;2022-07-30T04:05:25;99881.19;;;16.22;59.23
72802;BME280;61891;55.818;37.084;2022-07-30T04:07:53;99873.22;;;16.29;59.45
72802;BME280;61891;55.818;37.084;2022-07-30T04:10:19;99882.13;;;16.36;59.39
72802;BME280;61891;55.818;37.084;2022-07-30T04:13:05;99866.06;;;16.36;59.46
72802;BME280;61891;55.818;37.084;2022-07-30T04:15:38;99882.25;;;16.49;59.33
72802;BME280;61891;55.818;37.084;2022-07-30T04:18:07;99873.00;;;16.52;58.49
72802;BME280;61891;55.818;37.084;2022-07-30T04:20:39;99865.63;;;16.54;58.81
72802;BME280;61891;55.818;37.084;2022-07-30T04:23:05;99880.84;;;16.74;58.74
72802;BME280;61891;55.818;37.084;2022-07-30T04:25:32;99892.00;;;16.78;58.46
72802;BME280;61891;55.818;37.084;2022-07-30T04:27:59;99885.47;;;16.87;58.52
72802;BME280;61891;55.818;37.084;2022-07-30T04:30:24;99889.66;;;16.96;58.51
72802;BME280;61891;55.818;37.084;2022-07-30T04:32:52;99874.19;;;16.92;58.33
72802;BME280;61891;55.818;37.084;2022-07-30T04:35:36;99856.22;;;16.86;58.41
72802;BME280;61891;55.818;37.084;2022-07-30T04:38:31;99890.81;;;17.15;58.00
72802;BME280;61891;55.818;37.084;2022-07-30T04:40:57;99877.03;;;17.18;57.94
72802;BME280;61891;55.818;37.084;2022-07-30T04:43:24;99865.94;;;17.21;57.72
72802;BME280;61891;55.818;37.084;2022-07-30T04:45:50;99880.03;;;17.36;57.79
72802;BME280;61891;55.818;37.084;2022-07-30T04:48:16;99882.97;;;17.48;57.48
72802;BME280;61891;55.818;37.084;2022-07-30T04:51:26;99890.25;;;17.61;57.42
72802;BME280;61891;55.818;37.084;2022-07-30T04:53:54;99891.13;;;17.68;57.39
72802;BME280;61891;55.818;37.084;2022-07-30T04:56:21;99886.22;;;17.78;57.20
72802;BME280;61891;55.818;37.084;2022-07-30T04:58:48;99892.03;;;17.88;57.02
72802;BME280;61891;55.818;37.084;2022-07-30T05:01:17;99887.72;;;17.94;56.41
72802;BME280;61891;55.818;37.084;2022-07-30T05:03:46;99889.81;;;18.05;56.02
72802;BME280;61891;55.818;37.084;2022-07-30T05:06:13;99900.78;;;18.17;56.20
72802;BME280;61891;55.818;37.084;2022-07-30T05:08:39;99889.47;;;18.28;55.54
72802;BME280;61891;55.818;37.084;2022-07-30T05:11:12;99877.28;;;18.32;55.16
72802;BME280;61891;55.818;37.084;2022-07-30T05:13:45;99885.16;;;18.53;54.89
72802;BME280;61891;55.818;37.084;2022-07-30T05:16:16;99898.84;;;18.65;53.62
72802;BME280;61891;55.818;37.084;2022-07-30T05:18:43;99858.94;;;18.55;53.29
72802;BME280;61891;55.818;37.084;2022-07-30T05:21:09;99898.84;;;18.85;53.29
72802;BME280;61891;55.818;37.084;2022-07-30T05:23:42;99895.94;;;18.93;52.17
72802;BME280;61891;55.818;37.084;2022-07-30T05:26:19;99893.44;;;19.05;52.15
72802;BME280;61891;55.818;37.084;2022-07-30T05:28:47;99905.00;;;19.18;51.90
72802;BME280;61891;55.818;37.084;2022-07-30T05:31:14;99907.03;;;19.29;52.09
72802;BME280;61891;55.818;37.084;2022-07-30T05:33:45;99901.03;;;19.41;52.18
72802;BME280;61891;55.818;37.084;2022-07-30T05:36:15;99842.38;;;19.11;51.97
72802;BME280;61891;55.818;37.084;2022-07-30T05:38:41;99901.63;;;19.56;51.58
72802;BME280;61891;55.818;37.084;2022-07-30T05:41:26;99903.88;;;19.66;50.75
72802;BME280;61891;55.818;37.084;2022-07-30T05:44:01;99862.75;;;19.52;49.92
72802;BME280;61891;55.818;37.084;2022-07-30T05:46:27;99898.44;;;19.79;49.27
72802;BME280;61891;55.818;37.084;2022-07-30T05:48:55;99893.47;;;19.82;50.06
72802;BME280;61891;55.818;37.084;2022-07-30T05:51:21;99878.34;;;19.81;49.64
72802;BME280;61891;55.818;37.084;2022-07-30T05:53:47;99885.06;;;20.04;49.91
72802;BME280;61891;55.818;37.084;2022-07-30T05:56:32;99895.69;;;20.30;49.47
72802;BME280;61891;55.818;37.084;2022-07-30T05:59:12;99891.84;;;20.51;48.86
72802;BME280;61891;55.818;37.084;2022-07-30T06:01:56;99897.28;;;20.69;48.99
72802;BME280;61891;55.818;37.084;2022-07-30T06:04:28;99891.91;;;20.69;48.65
72802;BME280;61891;55.818;37.084;2022-07-30T06:07:00;99910.47;;;20.84;47.60
72802;BME280;61891;55.818;37.084;2022-07-30T06:09:26;99897.06;;;20.71;47.78
72802;BME280;61891;55.818;37.084;2022-07-30T06:11:53;99906.53;;;20.80;47.83
72802;BME280;61891;55.818;37.084;2022-07-30T06:14:18;99907.34;;;20.87;46.72
72802;BME280;61891;55.818;37.084;2022-07-30T06:16:44;99889.97;;;20.83;46.47
72802;BME280;61891;55.818;37.084;2022-07-30T06:19:10;99904.47;;;21.07;46.92
72802;BME280;61891;55.818;37.084;2022-07-30T06:21:42;99895.88;;;21.16;46.54
72802;BME280;61891;55.818;37.084;2022-07-30T06:24:10;99906.03;;;21.39;46.50
72802;BME280;61891;55.818;37.084;2022-07-30T06:26:47;99906.72;;;21.35;46.52
72802;BME280;61891;55.818;37.084;2022-07-30T06:29:13;99910.00;;;21.37;45.90
72802;BME280;61891;55.818;37.084;2022-07-30T06:31:39;99907.09;;;21.13;46.00
72802;BME280;61891;55.818;37.084;2022-07-30T06:34:08;99906.84;;;20.97;46.19
72802;BME280;61891;55.818;37.084;2022-07-30T06:36:39;99900.50;;;20.84;46.16
72802;BME280;61891;55.818;37.084;2022-07-30T06:39:12;99908.84;;;20.76;46.74
72802;BME280;61891;55.818;37.084;2022-07-30T06:41:56;99912.84;;;20.99;46.01
72802;BME280;61891;55.818;37.084;2022-07-30T06:44:26;99907.09;;;21.13;46.34
72802;BME280;61891;55.818;37.084;2022-07-30T06:47:10;99911.56;;;21.26;46.28
72802;BME280;61891;55.818;37.084;2022-07-30T06:49:37;99904.84;;;21.10;46.13
72802;BME280;61891;55.818;37.084;2022-07-30T06:52:06;99912.50;;;21.13;46.00
72802;BME280;61891;55.818;37.084;2022-07-30T06:54:33;99892.47;;;21.28;45.07
72802;BME280;61891;55.818;37.084;2022-07-30T06:57:21;99912.19;;;21.65;44.76
72802;BME280;61891;55.818;37.084;2022-07-30T06:59:48;99908.56;;;21.89;45.20
72802;BME280;61891;55.818;37.084;2022-07-30T07:02:19;99912.38;;;22.00;43.79
72802;BME280;61891;55.818;37.084;2022-07-30T07:05:06;99888.97;;;22.12;42.96
72802;BME280;61891;55.818;37.084;2022-07-30T07:07:33;99901.88;;;22.10;42.91
72802;BME280;61891;55.818;37.084;2022-07-30T07:09:59;99875.97;;;21.72;42.47
72802;BME280;61891;55.818;37.084;2022-07-30T07:12:48;99903.25;;;21.82;42.84
72802;BME280;61891;55.818;37.084;2022-07-30T07:15:17;99906.56;;;21.66;42.69
72802;BME280;61891;55.818;37.084;2022-07-30T07:17:43;99915.19;;;21.57;42.55
72802;BME280;61891;55.818;37.084;2022-07-30T07:20:33;99891.94;;;21.37;42.53
72802;BME280;61891;55.818;37.084;2022-07-30T07:23:03;99911.28;;;21.52;42.57
72802;BME280;61891;55.818;37.084;2022-07-30T07:25:31;99908.66;;;21.82;41.92
72802;BME280;61891;55.818;37.084;2022-07-30T07:27:56;99909.97;;;21.92;41.54
72802;BME280;61891;55.818;37.084;2022-07-30T07:30:22;99907.09;;;22.23;41.46
72802;BME280;61891;55.818;37.084;2022-07-30T07:32:48;99893.19;;;22.49;41.18
72802;BME280;61891;55.818;37.084;2022-07-30T07:35:14;99883.50;;;22.72;40.20
72802;BME280;61891;55.818;37.084;2022-07-30T07:37:43;99914.34;;;22.94;41.10
72802;BME280;61891;55.818;37.084;2022-07-30T07:40:17;99912.56;;;23.11;39.33
72802;BME280;61891;55.818;37.084;2022-07-30T07:42:44;99912.22;;;22.96;39.60
72802;BME280;61891;55.818;37.084;2022-07-30T07:45:09;99901.88;;;23.05;40.06
72802;BME280;61891;55.818;37.084;2022-07-30T07:47:47;99900.00;;;23.17;39.36
72802;BME280;61891;55.818;37.084;2022-07-30T07:50:20;99898.47;;;22.98;39.39
72802;BME280;61891;55.818;37.084;2022-07-30T07:52:46;99889.72;;;22.72;37.85
72802;BME280;61891;55.818;37.084;2022-07-30T07:55:12;99903.50;;;22.82;38.82
72802;BME280;61891;55.818;37.084;2022-07-30T07:57:42;99854.31;;;22.50;38.64
72802;BME280;61891;55.818;37.084;2022-07-30T08:00:12;99870.25;;;22.94;38.09
72802;BME280;61891;55.818;37.084;2022-07-30T08:02:46;99875.97;;;23.44;38.03
72802;BME280;61891;55.818;37.084;2022-07-30T08:05:13;99884.94;;;23.85;37.67
72802;BME280;61891;55.818;37.084;2022-07-30T08:07:40;99884.84;;;23.79;37.37
72802;BME280;61891;55.818;37.084;2022-07-30T08:10:36;99890.75;;;23.76;37.92
72802;BME280;61891;55.818;37.084;2022-07-30T08:13:40;99884.91;;;23.56;37.94
72802;BME280;61891;55.818;37.084;2022-07-30T08:16:24;99876.69;;;23.28;38.18
72802;BME280;61891;55.818;37.084;2022-07-30T08:19:08;99869.75;;;23.32;37.60
72802;BME280;61891;55.818;37.084;2022-07-30T08:21:39;99882.38;;;23.78;37.64
72802;BME280;61891;55.818;37.084;2022-07-30T08:24:06;99871.56;;;24.06;37.94
72802;BME280;61891;55.818;37.084;2022-07-30T08:26:32;99867.72;;;24.19;37.33
72802;BME280;61891;55.818;37.084;2022-07-30T08:28:57;99876.25;;;24.11;36.78
72802;BME280;61891;55.818;37.084;2022-07-30T08:31:23;99884.13;;;23.84;36.55
72802;BME280;61891;55.818;37.084;2022-07-30T08:33:49;99885.56;;;23.75;36.49
72802;BME280;61891;55.818;37.084;2022-07-30T08:36:15;99878.69;;;23.96;37.76
72802;BME280;61891;55.818;37.084;2022-07-30T08:38:41;99855.75;;;24.15;36.42
72802;BME280;61891;55.818;37.084;2022-07-30T08:41:07;99872.88;;;24.32;37.40
72802;BME280;61891;55.818;37.084;2022-07-30T08:43:35;99860.81;;;24.57;36.45
72802;BME280;61891;55.818;37.084;2022-07-30T08:46:04;99875.13;;;24.86;35.59
72802;BME280;61891;55.818;37.084;2022-07-30T08:49:01;99859.91;;;25.01;35.07
72802;BME280;61891;55.818;37.084;2022-07-30T08:51:27;99869.22;;;24.72;35.85
72802;BME280;61891;55.818;37.084;2022-07-30T08:54:11;99849.56;;;24.82;36.73
72802;BME280;61891;55.818;37.084;2022-07-30T08:56:38;99869.78;;;25.68;34.08
72802;BME280;61891;55.818;37.084;2022-07-30T08:59:05;99865.66;;;26.63;33.28
72802;BME280;61891;55.818;37.084;2022-07-30T09:01:31;99870.28;;;27.47;33.84
72802;BME280;61891;55.818;37.084;2022-07-30T09:03:57;99851.72;;;28.11;32.60
72802;BME280;61891;55.818;37.084;2022-07-30T09:06:27;99858.88;;;28.38;31.32
72802;BME280;61891;55.818;37.084;2022-07-30T09:08:53;99844.22;;;27.61;31.89
72802;BME280;61891;55.818;37.084;2022-07-30T09:11:19;99873.56;;;27.02;32.58
72802;BME280;61891;55.818;37.084;2022-07-30T09:13:44;99880.03;;;26.05;32.72
72802;BME280;61891;55.818;37.084;2022-07-30T09:16:23;99873.06;;;26.41;32.67
72802;BME280;61891;55.818;37.084;2022-07-30T09:18:51;99868.69;;;27.04;31.45
72802;BME280;61891;55.818;37.084;2022-07-30T09:21:23;99811.84;;;27.65;29.99
72802;BME280;61891;55.818;37.084;2022-07-30T09:24:11;99869.81;;;28.94;29.40
72802;BME280;61891;55.818;37.084;2022-07-30T09:27:06;99864.13;;;29.70;28.67
72802;BME280;61891;55.818;37.084;2022-07-30T09:29:56;99856.09;;;29.94;26.84
72802;BME280;61891;55.818;37.084;2022-07-30T09:32:48;99868.91;;;30.03;28.17
72802;BME280;61891;55.818;37.084;2022-07-30T09:35:33;99849.28;;;29.86;27.85
72802;BME280;61891;55.818;37.084;2022-07-30T09:38:08;99871.28;;;30.59;27.55
72802;BME280;61891;55.818;37.084;2022-07-30T09:40:54;99875.06;;;31.26;25.99
72802;BME280;61891;55.818;37.084;2022-07-30T09:43:47;99845.00;;;31.64;25.76
72802;BME280;61891;55.818;37.084;2022-07-30T09:46:47;99875.47;;;32.05;25.07
72802;BME280;61891;55.818;37.084;2022-07-30T09:49:29;99875.66;;;31.18;26.48
72802;BME280;61891;55.818;37.084;2022-07-30T09:51:55;99866.44;;;30.02;25.60
72802;BME280;61891;55.818;37.084;2022-07-30T09:54:21;99850.69;;;29.04;26.96
72802;BME280;61891;55.818;37.084;2022-07-30T09:56:47;99872.97;;;29.41;27.11
72802;BME280;61891;55.818;37.084;2022-07-30T09:59:29;99859.78;;;30.18;26.92
72802;BME280;61891;55.818;37.084;2022-07-30T10:01:56;99864.41;;;30.91;24.82
72802;BME280;61891;55.818;37.084;2022-07-30T10:05:08;99853.13;;;31.74;23.78
72802;BME280;61891;55.818;37.084;2022-07-30T10:07:35;99823.63;;;32.41;22.70
72802;BME280;61891;55.818;37.084;2022-07-30T10:10:02;99852.69;;;32.04;23.50
72802;BME280;61891;55.818;37.084;2022-07-30T10:12:31;99819.75;;;32.42;23.01
72802;BME280;61891;55.818;37.084;2022-07-30T10:14:58;99827.22;;;32.88;22.81
72802;BME280;61891;55.818;37.084;2022-07-30T10:17:30;99847.72;;;33.50;22.37
72802;BME280;61891;55.818;37.084;2022-07-30T10:20:16;99843.22;;;34.18;22.14
72802;BME280;61891;55.818;37.084;2022-07-30T10:23:00;99866.25;;;34.67;22.11
72802;BME280;61891;55.818;37.084;2022-07-30T10:25:49;99859.97;;;34.08;22.68
72802;BME280;61891;55.818;37.084;2022-07-30T10:28:39;99814.00;;;32.25;22.28
72802;BME280;61891;55.818;37.084;2022-07-30T10:31:05;99860.41;;;32.73;22.64
72802;BME280;61891;55.818;37.084;2022-07-30T10:33:30;99861.44;;;33.64;22.94
72802;BME280;61891;55.818;37.084;2022-07-30T10:35:57;99848.38;;;34.55;21.97
72802;BME280;61891;55.818;37.084;2022-07-30T10:38:27;99855.84;;;35.57;22.45
72802;BME280;61891;55.818;37.084;2022-07-30T10:41:24;99856.47;;;36.36;20.11
72802;BME280;61891;55.818;37.084;2022-07-30T10:46:49;99860.34;;;36.18;18.88
72802;BME280;61891;55.818;37.084;2022-07-30T10:49:20;99854.25;;;34.85;20.32
72802;BME280;61891;55.818;37.084;2022-07-30T10:51:50;99858.63;;;35.57;19.68
72802;BME280;61891;55.818;37.084;2022-07-30T11:02:29;99860.19;;;36.23;20.04
72802;BME280;61891;55.818;37.084;2022-07-30T11:07:42;99845.31;;;34.57;20.56
72802;BME280;61891;55.818;37.084;2022-07-30T11:10:37;99850.53;;;33.18;20.93
72802;BME280;61891;55.818;37.084;2022-07-30T11:13:05;99798.81;;;32.79;21.89
72802;BME280;61891;55.818;37.084;2022-07-30T11:18:15;99838.75;;;36.37;19.87
72802;BME280;61891;55.818;37.084;2022-07-30T11:20:41;99816.53;;;37.65;19.47
72802;BME280;61891;55.818;37.084;2022-07-30T11:23:09;99843.25;;;37.91;18.89
72802;BME280;61891;55.818;37.084;2022-07-30T11:28:01;99833.88;;;36.34;20.01
72802;BME280;61891;55.818;37.084;2022-07-30T11:35:41;99839.25;;;37.80;18.73
72802;BME280;61891;55.818;37.084;2022-07-30T11:38:14;99839.56;;;36.29;19.02
72802;BME280;61891;55.818;37.084;2022-07-30T11:48:33;99795.56;;;31.74;21.82
72802;BME280;61891;55.818;37.084;2022-07-30T11:50:59;99837.63;;;31.40;22.38
72802;BME280;61891;55.818;37.084;2022-07-30T11:53:24;99836.75;;;30.92;23.12
72802;BME280;61891;55.818;37.084;2022-07-30T11:55:55;99819.91;;;30.80;22.93
72802;BME280;61891;55.818;37.084;2022-07-30T11:58:32;99821.31;;;33.63;22.17
72802;BME280;61891;55.818;37.084;2022-07-30T12:01:01;99823.31;;;36.19;20.40
72802;BME280;61891;55.818;37.084;2022-07-30T12:03:29;99802.66;;;37.95;19.21
72802;BME280;61891;55.818;37.084;2022-07-30T12:06:07;99823.38;;;39.57;17.70
72802;BME280;61891;55.818;37.084;2022-07-30T12:08:45;99827.84;;;40.70;17.04
72802;BME280;61891;55.818;37.084;2022-07-30T12:11:11;99837.13;;;41.06;17.55
72802;BME280;61891;55.818;37.084;2022-07-30T12:13:38;99833.34;;;40.98;15.87
72802;BME280;61891;55.818;37.084;2022-07-30T12:16:17;99822.41;;;41.37;15.12
72802;BME280;61891;55.818;37.084;2022-07-30T12:18:44;99814.06;;;40.89;14.81
72802;BME280;61891;55.818;37.084;2022-07-30T12:21:11;99829.94;;;38.59;15.65
72802;BME280;61891;55.818;37.084;2022-07-30T12:23:38;99814.72;;;37.10;16.76
72802;BME280;61891;55.818;37.084;2022-07-30T12:26:04;99827.94;;;35.10;17.47
72802;BME280;61891;55.818;37.084;2022-07-30T12:28:31;99823.00;;;36.29;17.44
72802;BME280;61891;55.818;37.084;2022-07-30T12:30:59;99814.25;;;37.38;16.54
72802;BME280;61891;55.818;37.084;2022-07-30T12:33:27;99809.16;;;35.69;17.41
72802;BME280;61891;55.818;37.084;2022-07-30T12:35:53;99821.19;;;35.81;18.12
72802;BME280;61891;55.818;37.084;2022-07-30T12:38:21;99772.00;;;37.79;15.99
72802;BME280;61891;55.818;37.084;2022-07-30T12:40:51;99814.31;;;39.73;15.95
72802;BME280;61891;55.818;37.084;2022-07-30T12:43:17;99810.59;;;38.71;15.89
72802;BME280;61891;55.818;37.084;2022-07-30T12:46:02;99810.97;;;39.67;15.77
72802;BME280;61891;55.818;37.084;2022-07-30T12:48:29;99812.53;;;41.24;15.39
72802;BME280;61891;55.818;37.084;2022-07-30T12:51:08;99785.16;;;41.26;14.45
72802;BME280;61891;55.818;37.084;2022-07-30T12:53:35;99793.88;;;38.47;15.83
72802;BME280;61891;55.818;37.084;2022-07-30T12:58:40;99798.78;;;35.17;17.47
72802;BME280;61891;55.818;37.084;2022-07-30T13:01:07;99802.69;;;36.25;17.21
72802;BME280;61891;55.818;37.084;2022-07-30T13:03:33;99805.19;;;38.42;16.25
72802;BME280;61891;55.818;37.084;2022-07-30T13:11:10;99793.88;;;41.75;15.20
72802;BME280;61891;55.818;37.084;2022-07-30T13:13:36;99806.22;;;42.12;14.65
72802;BME280;61891;55.818;37.084;2022-07-30T13:16:04;99802.63;;;42.12;13.64
72802;BME280;61891;55.818;37.084;2022-07-30T13:18:31;99807.00;;;41.74;13.90
72802;BME280;61891;55.818;37.084;2022-07-30T13:20:58;99794.53;;;41.68;13.99
72802;BME280;61891;55.818;37.084;2022-07-30T13:23:24;99791.25;;;42.21;14.04
72802;BME280;61891;55.818;37.084;2022-07-30T13:25:52;99800.19;;;42.72;14.15
72802;BME280;61891;55.818;37.084;2022-07-30T13:28:18;99772.00;;;42.77;13.42
72802;BME280;61891;55.818;37.084;2022-07-30T13:30:45;99795.00;;;42.93;13.74
72802;BME280;61891;55.818;37.084;2022-07-30T13:33:11;99780.72;;;42.75;13.83
72802;BME280;61891;55.818;37.084;2022-07-30T13:35:37;99797.59;;;42.83;12.58
72802;BME280;61891;55.818;37.084;2022-07-30T13:38:03;99786.56;;;42.67;12.97
72802;BME280;61891;55.818;37.084;2022-07-30T13:40:31;99784.94;;;39.72;14.08
72802;BME280;61891;55.818;37.084;2022-07-30T13:42:58;99790.09;;;36.88;15.87
72802;BME280;61891;55.818;37.084;2022-07-30T13:45:23;99791.16;;;35.14;16.04
72802;BME280;61891;55.818;37.084;2022-07-30T13:47:49;99786.78;;;33.84;17.34
72802;BME280;61891;55.818;37.084;2022-07-30T13:50:15;99792.75;;;33.09;17.92
72802;BME280;61891;55.818;37.084;2022-07-30T13:52:40;99785.31;;;33.51;17.64
72802;BME280;61891;55.818;37.084;2022-07-30T13:55:06;99766.47;;;35.01;16.76
72802;BME280;61891;55.818;37.084;2022-07-30T13:57:32;99756.28;;;34.39;17.35